SBGL/GIG METAR and TAF weather

Enter ICAO airport designator
Station Type Date Time Source
SBGL METAR 2019/10/21 02:00 UTC NOAA

SBGL 210200Z 27004KT 9999 OVC045 20/16 Q1015


Station Type Date Time Source
SBGL Decoded METAR 2019/10/21 02:00 UTC NOAA

Galeao, Brazil (SBGL) 22-49S 043-15W 42M
Oct 20, 2019 - 10:00 PM EDT / 2019.10.21 0200 UTC
Wind: from the W (270 degrees) at 5 MPH (4 KT):0
Visibility: greater than 7 mile(s):0
Sky conditions: overcast
Temperature: 68 F (20 C)
Dew Point: 60 F (16 C)
Relative Humidity: 77%
Pressure (altimeter): 29.97 in. Hg (1015 hPa)
ob: SBGL 210200Z 27004KT 9999 OVC045 20/16 Q1015
cycle: 2

Station Type Date Time Source
SBGL TAF 2019/10/21 00:00 UTC NOAA

TAF SBGL 202100Z 2100/2206 20010KT 8000 SCT017 BKN030 TN21/2108Z TX26/2116Z
BECMG 2102/2104 27005KT SCT015 SCT030 PROB30 2108/2110 31005KT 5000 BR FEW010 SCT030
BECMG 2113/2115 18010KT SCT025
BECMG 2116/2118 14010KT FEW020
BECMG 2121/2123 10005KT
RMK PHD

Example: see airport list